sensor_id;sensor_type;location;lat;lon;timestamp;temperature;humidity
22682;DHT22;11508;50.856;4.380;2024-03-23T00:54:34;8.40;38.40
22682;DHT22;11508;50.856;4.380;2024-03-23T00:57:00;8.50;29.10
22682;DHT22;11508;50.856;4.380;2024-03-23T00:59:52;8.40;24.70
22682;DHT22;11508;50.856;4.380;2024-03-23T01:02:36;8.30;23.90
22682;DHT22;11508;50.856;4.380;2024-03-23T01:05:02;8.30;25.30
22682;DHT22;11508;50.856;4.380;2024-03-23T01:07:40;8.60;19.00
22682;DHT22;11508;50.856;4.380;2024-03-23T01:13:27;8.40;8.80
22682;DHT22;11508;50.856;4.380;2024-03-23T01:16:39;8.50;1.00
22682;DHT22;11508;50.856;4.380;2024-03-23T01:19:11;8.30;1.00
22682;DHT22;11508;50.856;4.380;2024-03-23T01:21:57;8.30;1.00
22682;DHT22;11508;50.856;4.380;2024-03-23T01:24:50;8.60;1.00
22682;DHT22;11508;50.856;4.380;2024-03-23T01:27:59;8.50;1.00
22682;DHT22;11508;50.856;4.380;2024-03-23T01:30:28;8.50;1.00
22682;DHT22;11508;50.856;4.380;2024-03-23T01:32:59;8.40;1.00
22682;DHT22;11508;50.856;4.380;2024-03-23T01:35:29;8.50;1.00
22682;DHT22;11508;50.856;4.380;2024-03-23T01:38:13;8.60;1.10
22682;DHT22;11508;50.856;4.380;2024-03-23T01:41:05;8.60;2.40
22682;DHT22;11508;50.856;4.380;2024-03-23T01:43:33;8.50;3.90
22682;DHT22;11508;50.856;4.380;2024-03-23T01:46:09;8.30;21.60
22682;DHT22;11508;50.856;4.380;2024-03-23T01:48:36;8.40;29.90
22682;DHT22;11508;50.856;4.380;2024-03-23T01:51:26;8.30;30.00
22682;DHT22;11508;50.856;4.380;2024-03-23T01:53:54;8.40;30.90
22682;DHT22;11508;50.856;4.380;2024-03-23T01:56:23;8.50;32.10
22682;DHT22;11508;50.856;4.380;2024-03-23T02:04:56;8.20;59.10
22682;DHT22;11508;50.856;4.380;2024-03-23T02:07:22;8.10;69.20
22682;DHT22;11508;50.856;4.380;2024-03-23T02:09:59;8.20;77.50
22682;DHT22;11508;50.856;4.380;2024-03-23T02:13:12;8.10;83.00
22682;DHT22;11508;50.856;4.380;2024-03-23T02:16:10;8.10;97.70
22682;DHT22;11508;50.856;4.380;2024-03-23T02:18:42;8.10;99.00
22682;DHT22;11508;50.856;4.380;2024-03-23T02:21:08;8.00;99.90
22682;DHT22;11508;50.856;4.380;2024-03-23T02:24:03;8.20;99.90
22682;DHT22;11508;50.856;4.380;2024-03-23T02:29:52;8.30;99.20
22682;DHT22;11508;50.856;4.380;2024-03-23T02:32:23;8.20;95.40
22682;DHT22;11508;50.856;4.380;2024-03-23T02:35:10;8.30;92.10
22682;DHT22;11508;50.856;4.380;2024-03-23T02:38:15;8.20;94.80
22682;DHT22;11508;50.856;4.380;2024-03-23T02:41:07;8.10;99.90
22682;DHT22;11508;50.856;4.380;2024-03-23T02:44:10;8.20;99.90
22682;DHT22;11508;50.856;4.380;2024-03-23T02:47:10;8.30;99.90
22682;DHT22;11508;50.856;4.380;2024-03-23T02:50:00;8.20;98.70
22682;DHT22;11508;50.856;4.380;2024-03-23T02:52:43;8.30;99.90
22682;DHT22;11508;50.856;4.380;2024-03-23T02:55:34;8.40;96.30
22682;DHT22;11508;50.856;4.380;2024-03-23T02:58:09;8.30;93.70
22682;DHT22;11508;50.856;4.380;2024-03-23T03:00:41;8.20;89.40
22682;DHT22;11508;50.856;4.380;2024-03-23T03:03:55;8.30;90.60
22682;DHT22;11508;50.856;4.380;2024-03-23T03:06:40;8.20;93.60
22682;DHT22;11508;50.856;4.380;2024-03-23T03:09:16;8.20;91.60
22682;DHT22;11508;50.856;4.380;2024-03-23T03:11:59;8.20;92.20
22682;DHT22;11508;50.856;4.380;2024-03-23T03:18:00;8.10;84.30
22682;DHT22;11508;50.856;4.380;2024-03-23T03:20:39;8.20;83.40
22682;DHT22;11508;50.856;4.380;2024-03-23T03:23:06;8.20;74.60
22682;DHT22;11508;50.856;4.380;2024-03-23T03:32:05;8.20;56.80
22682;DHT22;11508;50.856;4.380;2024-03-23T03:34:50;8.10;50.10
22682;DHT22;11508;50.856;4.380;2024-03-23T03:37:16;8.00;46.90
22682;DHT22;11508;50.856;4.380;2024-03-23T03:45:58;8.30;47.40
22682;DHT22;11508;50.856;4.380;2024-03-23T03:48:36;8.40;32.10
22682;DHT22;11508;50.856;4.380;2024-03-23T03:51:33;8.50;21.90
22682;DHT22;11508;50.856;4.380;2024-03-23T03:54:08;8.20;45.90
22682;DHT22;11508;50.856;4.380;2024-03-23T03:59:44;8.00;58.50
22682;DHT22;11508;50.856;4.380;2024-03-23T04:02:19;7.90;72.80
22682;DHT22;11508;50.856;4.380;2024-03-23T04:07:46;7.90;62.30
22682;DHT22;11508;50.856;4.380;2024-03-23T04:10:49;7.90;61.00
22682;DHT22;11508;50.856;4.380;2024-03-23T04:13:52;7.90;52.70
22682;DHT22;11508;50.856;4.380;2024-03-23T04:19:27;8.10;9.40
22682;DHT22;11508;50.856;4.380;2024-03-23T04:22:07;8.00;1.00
22682;DHT22;11508;50.856;4.380;2024-03-23T04:24:43;7.90;1.00
22682;DHT22;11508;50.856;4.380;2024-03-23T04:27:11;7.80;1.00
22682;DHT22;11508;50.856;4.380;2024-03-23T04:29:38;7.80;1.00
22682;DHT22;11508;50.856;4.380;2024-03-23T04:32:33;8.00;1.00
22682;DHT22;11508;50.856;4.380;2024-03-23T04:35:24;8.10;1.00
22682;DHT22;11508;50.856;4.380;2024-03-23T04:38:08;8.10;1.00
22682;DHT22;11508;50.856;4.380;2024-03-23T04:40:57;8.10;1.00
22682;DHT22;11508;50.856;4.380;2024-03-23T04:43:32;8.00;1.00
22682;DHT22;11508;50.856;4.380;2024-03-23T04:46:25;8.20;1.00
22682;DHT22;11508;50.856;4.380;2024-03-23T04:49:29;8.10;1.00
22682;DHT22;11508;50.856;4.380;2024-03-23T04:54:58;8.10;1.00
22682;DHT22;11508;50.856;4.380;2024-03-23T04:57:43;7.90;1.00
22682;DHT22;11508;50.856;4.380;2024-03-23T05:00:33;7.80;1.00
22682;DHT22;11508;50.856;4.380;2024-03-23T05:03:04;7.70;1.00
22682;DHT22;11508;50.856;4.380;2024-03-23T05:05:51;7.90;1.00
22682;DHT22;11508;50.856;4.380;2024-03-23T05:08:36;7.70;1.00
22682;DHT22;11508;50.856;4.380;2024-03-23T05:11:29;7.70;1.00
22682;DHT22;11508;50.856;4.380;2024-03-23T05:14:20;7.70;1.00
22682;DHT22;11508;50.856;4.380;2024-03-23T05:17:34;7.80;1.00
22682;DHT22;11508;50.856;4.380;2024-03-23T05:23:22;7.80;1.00
22682;DHT22;11508;50.856;4.380;2024-03-23T05:25:50;7.90;1.00
22682;DHT22;11508;50.856;4.380;2024-03-23T05:28:19;7.70;1.00
22682;DHT22;11508;50.856;4.380;2024-03-23T05:30:59;7.60;1.00
22682;DHT22;11508;50.856;4.380;2024-03-23T05:33:42;7.70;1.00
22682;DHT22;11508;50.856;4.380;2024-03-23T05:36:36;7.70;1.00
22682;DHT22;11508;50.856;4.380;2024-03-23T05:39:14;7.80;1.00
22682;DHT22;11508;50.856;4.380;2024-03-23T05:42:32;7.70;1.00
22682;DHT22;11508;50.856;4.380;2024-03-23T05:45:06;7.60;1.00
22682;DHT22;11508;50.856;4.380;2024-03-23T05:47:54;7.50;1.00
22682;DHT22;11508;50.856;4.380;2024-03-23T05:51:03;7.50;1.00
22682;DHT22;11508;50.856;4.380;2024-03-23T05:53:54;7.60;1.00
22682;DHT22;11508;50.856;4.380;2024-03-23T05:56:50;7.50;1.00
22682;DHT22;11508;50.856;4.380;2024-03-23T05:59:28;7.60;1.00
22682;DHT22;11508;50.856;4.380;2024-03-23T06:05:22;7.60;1.00
22682;DHT22;11508;50.856;4.380;2024-03-23T06:08:13;7.50;1.00
22682;DHT22;11508;50.856;4.380;2024-03-23T06:11:05;7.50;1.00
22682;DHT22;11508;50.856;4.380;2024-03-23T06:16:22;7.60;1.00
22682;DHT22;11508;50.856;4.380;2024-03-23T06:19:07;7.50;1.00
22682;DHT22;11508;50.856;4.380;2024-03-23T06:21:51;7.50;1.00
22682;DHT22;11508;50.856;4.380;2024-03-23T06:24:17;7.70;1.00
22682;DHT22;11508;50.856;4.380;2024-03-23T06:26:44;7.70;1.00
22682;DHT22;11508;50.856;4.380;2024-03-23T06:38:10;7.50;1.00
22682;DHT22;11508;50.856;4.380;2024-03-23T06:46:34;7.50;1.00
22682;DHT22;11508;50.856;4.380;2024-03-23T06:49:03;7.60;1.00
22682;DHT22;11508;50.856;4.380;2024-03-23T06:51:39;7.60;1.00
22682;DHT22;11508;50.856;4.380;2024-03-23T06:54:27;7.50;1.00
22682;DHT22;11508;50.856;4.380;2024-03-23T06:57:18;7.50;1.00
22682;DHT22;11508;50.856;4.380;2024-03-23T07:00:11;7.70;1.00
22682;DHT22;11508;50.856;4.380;2024-03-23T07:06:09;7.80;1.00
22682;DHT22;11508;50.856;4.380;2024-03-23T07:11:42;8.10;1.00
22682;DHT22;11508;50.856;4.380;2024-03-23T07:16:58;7.00;1.00
22682;DHT22;11508;50.856;4.380;2024-03-23T07:20:09;6.70;1.00
22682;DHT22;11508;50.856;4.380;2024-03-23T07:22:36;6.60;1.00
22682;DHT22;11508;50.856;4.380;2024-03-23T07:31:59;6.60;1.00
22682;DHT22;11508;50.856;4.380;2024-03-23T07:34:28;6.80;1.00
22682;DHT22;11508;50.856;4.380;2024-03-23T07:36:58;7.00;1.00
22682;DHT22;11508;50.856;4.380;2024-03-23T07:39:25;7.10;1.00
22682;DHT22;11508;50.856;4.380;2024-03-23T07:42:28;7.20;1.00
22682;DHT22;11508;50.856;4.380;2024-03-23T07:45:02;7.20;1.00
22682;DHT22;11508;50.856;4.380;2024-03-23T07:47:47;7.50;1.00
22682;DHT22;11508;50.856;4.380;2024-03-23T07:50:34;7.60;1.00
22682;DHT22;11508;50.856;4.380;2024-03-23T07:56:23;7.80;1.00
22682;DHT22;11508;50.856;4.380;2024-03-23T07:58:54;7.60;1.00
22682;DHT22;11508;50.856;4.380;2024-03-23T08:01:36;7.60;1.00
22682;DHT22;11508;50.856;4.380;2024-03-23T08:04:02;7.70;1.00
22682;DHT22;11508;50.856;4.380;2024-03-23T08:06:27;7.80;1.00
22682;DHT22;11508;50.856;4.380;2024-03-23T08:08:56;8.10;1.00
22682;DHT22;11508;50.856;4.380;2024-03-23T08:11:28;7.80;1.00
22682;DHT22;11508;50.856;4.380;2024-03-23T08:13:54;7.80;1.00
22682;DHT22;11508;50.856;4.380;2024-03-23T08:16:20;8.00;1.00
22682;DHT22;11508;50.856;4.380;2024-03-23T08:18:46;8.00;1.00
22682;DHT22;11508;50.856;4.380;2024-03-23T08:21:12;7.80;1.00
22682;DHT22;11508;50.856;4.380;2024-03-23T08:23:37;7.70;1.00
22682;DHT22;11508;50.856;4.380;2024-03-23T08:26:07;7.80;1.00
22682;DHT22;11508;50.856;4.380;2024-03-23T08:28:33;7.80;1.00
22682;DHT22;11508;50.856;4.380;2024-03-23T08:31:03;7.80;1.00
22682;DHT22;11508;50.856;4.380;2024-03-23T08:33:30;7.90;1.00
22682;DHT22;11508;50.856;4.380;2024-03-23T08:36:14;7.80;1.00
22682;DHT22;11508;50.856;4.380;2024-03-23T08:38:40;8.00;1.00
22682;DHT22;11508;50.856;4.380;2024-03-23T08:41:06;8.10;1.00
22682;DHT22;11508;50.856;4.380;2024-03-23T08:43:33;8.40;1.00
22682;DHT22;11508;50.856;4.380;2024-03-23T08:48:31;8.20;1.00
22682;DHT22;11508;50.856;4.380;2024-03-23T08:51:00;8.30;1.00
22682;DHT22;11508;50.856;4.380;2024-03-23T08:53:29;8.40;1.00
22682;DHT22;11508;50.856;4.380;2024-03-23T08:55:56;8.60;1.00
22682;DHT22;11508;50.856;4.380;2024-03-23T08:58:23;8.50;1.00
22682;DHT22;11508;50.856;4.380;2024-03-23T09:00:51;8.40;99.90
22682;DHT22;11508;50.856;4.380;2024-03-23T09:03:17;8.60;99.90
22682;DHT22;11508;50.856;4.380;2024-03-23T09:05:42;8.80;99.90
22682;DHT22;11508;50.856;4.380;2024-03-23T09:08:08;9.20;99.90
22682;DHT22;11508;50.856;4.380;2024-03-23T09:10:40;9.40;99.90
22682;DHT22;11508;50.856;4.380;2024-03-23T09:13:06;9.20;99.90
22682;DHT22;11508;50.856;4.380;2024-03-23T09:15:34;9.10;99.90
22682;DHT22;11508;50.856;4.380;2024-03-23T09:17:59;9.00;99.90
22682;DHT22;11508;50.856;4.380;2024-03-23T09:20:25;9.40;99.90
22682;DHT22;11508;50.856;4.380;2024-03-23T09:22:51;9.30;1.00
22682;DHT22;11508;50.856;4.380;2024-03-23T09:25:16;9.20;1.00
22682;DHT22;11508;50.856;4.380;2024-03-23T09:27:42;9.10;1.00
22682;DHT22;11508;50.856;4.380;2024-03-23T09:30:07;9.40;1.00
22682;DHT22;11508;50.856;4.380;2024-03-23T09:32:33;9.80;1.00
22682;DHT22;11508;50.856;4.380;2024-03-23T09:34:59;9.80;1.00
22682;DHT22;11508;50.856;4.380;2024-03-23T09:37:25;9.30;1.00
22682;DHT22;11508;50.856;4.380;2024-03-23T09:39:51;9.40;99.90
22682;DHT22;11508;50.856;4.380;2024-03-23T09:42:23;9.40;99.90
22682;DHT22;11508;50.856;4.380;2024-03-23T09:44:50;9.00;44.10
22682;DHT22;11508;50.856;4.380;2024-03-23T09:47:19;8.70;99.90
22682;DHT22;11508;50.856;4.380;2024-03-23T09:49:45;8.60;99.90
22682;DHT22;11508;50.856;4.380;2024-03-23T09:52:11;8.80;1.00
22682;DHT22;11508;50.856;4.380;2024-03-23T09:54:43;9.00;1.00
22682;DHT22;11508;50.856;4.380;2024-03-23T09:57:14;9.30;99.90
22682;DHT22;11508;50.856;4.380;2024-03-23T09:59:40;9.20;1.00
22682;DHT22;11508;50.856;4.380;2024-03-23T10:02:06;9.30;1.70
22682;DHT22;11508;50.856;4.380;2024-03-23T10:04:40;9.40;99.90
22682;DHT22;11508;50.856;4.380;2024-03-23T10:07:10;9.30;99.90
22682;DHT22;11508;50.856;4.380;2024-03-23T10:09:36;9.00;99.90
22682;DHT22;11508;50.856;4.380;2024-03-23T10:12:08;9.20;1.00
22682;DHT22;11508;50.856;4.380;2024-03-23T10:14:35;9.30;49.50
22682;DHT22;11508;50.856;4.380;2024-03-23T10:19:37;10.20;1.00
22682;DHT22;11508;50.856;4.380;2024-03-23T10:22:04;10.00;99.90
22682;DHT22;11508;50.856;4.380;2024-03-23T10:24:29;10.50;99.90
22682;DHT22;11508;50.856;4.380;2024-03-23T10:26:56;10.60;99.90
22682;DHT22;11508;50.856;4.380;2024-03-23T10:29:21;10.90;99.90
22682;DHT22;11508;50.856;4.380;2024-03-23T10:31:47;10.80;99.90
22682;DHT22;11508;50.856;4.380;2024-03-23T10:34:34;9.80;99.90
22682;DHT22;11508;50.856;4.380;2024-03-23T10:37:20;9.10;1.00
22682;DHT22;11508;50.856;4.380;2024-03-23T10:39:46;9.20;99.90
22682;DHT22;11508;50.856;4.380;2024-03-23T10:42:16;9.80;99.90
22682;DHT22;11508;50.856;4.380;2024-03-23T10:44:43;10.30;99.90
22682;DHT22;11508;50.856;4.380;2024-03-23T10:47:09;10.30;99.90
22682;DHT22;11508;50.856;4.380;2024-03-23T10:49:35;10.50;99.90
22682;DHT22;11508;50.856;4.380;2024-03-23T10:54:29;11.30;42.00
22682;DHT22;11508;50.856;4.380;2024-03-23T10:57:09;11.10;1.00
22682;DHT22;11508;50.856;4.380;2024-03-23T10:59:49;11.30;1.00
22682;DHT22;11508;50.856;4.380;2024-03-23T11:02:22;11.30;1.00
22682;DHT22;11508;50.856;4.380;2024-03-23T11:07:36;12.20;99.90
22682;DHT22;11508;50.856;4.380;2024-03-23T11:10:35;11.90;99.90
22682;DHT22;11508;50.856;4.380;2024-03-23T11:13:27;11.90;99.90
22682;DHT22;11508;50.856;4.380;2024-03-23T11:16:12;12.40;99.90
22682;DHT22;11508;50.856;4.380;2024-03-23T11:18:38;12.30;99.90
22682;DHT22;11508;50.856;4.380;2024-03-23T11:21:11;11.80;99.90
22682;DHT22;11508;50.856;4.380;2024-03-23T11:24:15;12.00;99.90
22682;DHT22;11508;50.856;4.380;2024-03-23T11:26:49;12.90;99.90
22682;DHT22;11508;50.856;4.380;2024-03-23T11:32:19;12.80;99.90
22682;DHT22;11508;50.856;4.380;2024-03-23T11:34:52;12.40;99.90
22682;DHT22;11508;50.856;4.380;2024-03-23T11:37:24;12.10;99.90
22682;DHT22;11508;50.856;4.380;2024-03-23T11:39:50;11.80;99.90
22682;DHT22;11508;50.856;4.380;2024-03-23T11:42:17;12.50;99.90
22682;DHT22;11508;50.856;4.380;2024-03-23T11:44:43;13.10;99.90
22682;DHT22;11508;50.856;4.380;2024-03-23T11:47:08;13.00;99.90
22682;DHT22;11508;50.856;4.380;2024-03-23T11:49:36;12.40;99.90
22682;DHT22;11508;50.856;4.380;2024-03-23T11:52:06;12.20;99.90
22682;DHT22;11508;50.856;4.380;2024-03-23T11:54:35;11.90;99.90
22682;DHT22;11508;50.856;4.380;2024-03-23T11:57:09;12.10;99.90
22682;DHT22;11508;50.856;4.380;2024-03-23T11:59:43;11.90;99.90
22682;DHT22;11508;50.856;4.380;2024-03-23T12:02:13;11.90;99.90
22682;DHT22;11508;50.856;4.380;2024-03-23T12:04:43;12.70;99.90
22682;DHT22;11508;50.856;4.380;2024-03-23T12:09:43;13.10;99.90
22682;DHT22;11508;50.856;4.380;2024-03-23T12:15:02;13.40;99.90
22682;DHT22;11508;50.856;4.380;2024-03-23T12:17:30;12.50;99.90
22682;DHT22;11508;50.856;4.380;2024-03-23T12:19:57;12.30;99.90
22682;DHT22;11508;50.856;4.380;2024-03-23T12:22:24;12.20;99.90
22682;DHT22;11508;50.856;4.380;2024-03-23T12:24:50;11.40;99.90
22682;DHT22;11508;50.856;4.380;2024-03-23T12:27:23;10.60;99.90
22682;DHT22;11508;50.856;4.380;2024-03-23T12:29:49;10.50;99.90
22682;DHT22;11508;50.856;4.380;2024-03-23T12:32:15;10.00;99.90
22682;DHT22;11508;50.856;4.380;2024-03-23T12:34:43;9.80;99.90
22682;DHT22;11508;50.856;4.380;2024-03-23T12:37:11;10.60;99.90
22682;DHT22;11508;50.856;4.380;2024-03-23T12:39:39;11.30;99.90
22682;DHT22;11508;50.856;4.380;2024-03-23T12:42:22;11.90;99.90
22682;DHT22;11508;50.856;4.380;2024-03-23T12:44:56;12.50;99.90
22682;DHT22;11508;50.856;4.380;2024-03-23T12:47:30;12.50;99.90
22682;DHT22;11508;50.856;4.380;2024-03-23T12:49:58;12.50;99.90
22682;DHT22;11508;50.856;4.380;2024-03-23T12:52:46;13.10;99.90
22682;DHT22;11508;50.856;4.380;2024-03-23T12:55:36;12.90;99.90
22682;DHT22;11508;50.856;4.380;2024-03-23T12:58:02;13.20;99.90
22682;DHT22;11508;50.856;4.380;2024-03-23T13:00:28;13.10;99.90
22682;DHT22;11508;50.856;4.380;2024-03-23T13:05:42;13.60;99.90
22682;DHT22;11508;50.856;4.380;2024-03-23T13:08:09;12.80;99.90
22682;DHT22;11508;50.856;4.380;2024-03-23T13:10:41;12.70;99.90
22682;DHT22;11508;50.856;4.380;2024-03-23T13:13:09;13.20;99.90
22682;DHT22;11508;50.856;4.380;2024-03-23T13:15:41;14.00;99.90
22682;DHT22;11508;50.856;4.380;2024-03-23T13:18:08;14.30;99.90
22682;DHT22;11508;50.856;4.380;2024-03-23T13:20:40;13.90;99.90
22682;DHT22;11508;50.856;4.380;2024-03-23T13:23:25;13.30;99.90
22682;DHT22;11508;50.856;4.380;2024-03-23T13:25:55;12.90;99.90
22682;DHT22;11508;50.856;4.380;2024-03-23T13:29:05;11.90;99.90
22682;DHT22;11508;50.856;4.380;2024-03-23T13:31:42;11.80;99.90
22682;DHT22;11508;50.856;4.380;2024-03-23T13:34:09;12.60;99.90
22682;DHT22;11508;50.856;4.380;2024-03-23T13:37:01;13.10;99.90
22682;DHT22;11508;50.856;4.380;2024-03-23T13:39:29;12.90;99.90
22682;DHT22;11508;50.856;4.380;2024-03-23T13:41:55;12.40;99.90
22682;DHT22;11508;50.856;4.380;2024-03-23T13:44:38;11.50;99.90
22682;DHT22;11508;50.856;4.380;2024-03-23T13:52:42;10.90;99.90
22682;DHT22;11508;50.856;4.380;2024-03-23T13:55:29;11.20;99.90
22682;DHT22;11508;50.856;4.380;2024-03-23T13:58:01;11.90;99.90
22682;DHT22;11508;50.856;4.380;2024-03-23T14:00:27;11.80;99.90
22682;DHT22;11508;50.856;4.380;2024-03-23T14:05:40;12.20;99.90
22682;DHT22;11508;50.856;4.380;2024-03-23T14:08:10;12.70;99.90
22682;DHT22;11508;50.856;4.380;2024-03-23T14:10:36;12.00;99.90
22682;DHT22;11508;50.856;4.380;2024-03-23T14:13:07;11.40;99.90
22682;DHT22;11508;50.856;4.380;2024-03-23T14:15:34;11.10;99.90
22682;DHT22;11508;50.856;4.380;2024-03-23T14:18:03;10.70;99.90
22682;DHT22;11508;50.856;4.380;2024-03-23T14:20:31;10.40;99.90
22682;DHT22;11508;50.856;4.380;2024-03-23T14:22:57;10.90;99.90
22682;DHT22;11508;50.856;4.380;2024-03-23T14:25:24;11.70;99.90
22682;DHT22;11508;50.856;4.380;2024-03-23T14:28:13;12.40;99.90
22682;DHT22;11508;50.856;4.380;2024-03-23T14:30:47;12.20;99.90
22682;DHT22;11508;50.856;4.380;2024-03-23T14:33:13;11.30;99.90
22682;DHT22;11508;50.856;4.380;2024-03-23T14:35:58;10.70;99.90
22682;DHT22;11508;50.856;4.380;2024-03-23T14:38:23;10.50;99.90
22682;DHT22;11508;50.856;4.380;2024-03-23T14:40:50;10.40;99.90
22682;DHT22;11508;50.856;4.380;2024-03-23T14:43:26;10.40;99.90
22682;DHT22;11508;50.856;4.380;2024-03-23T14:46:16;10.30;99.90
22682;DHT22;11508;50.856;4.380;2024-03-23T14:48:42;10.40;99.90
22682;DHT22;11508;50.856;4.380;2024-03-23T14:51:17;10.70;99.90
22682;DHT22;11508;50.856;4.380;2024-03-23T14:53:48;10.60;99.90
22682;DHT22;11508;50.856;4.380;2024-03-23T14:56:16;10.90;99.90
22682;DHT22;11508;50.856;4.380;2024-03-23T14:58:43;11.20;99.90
22682;DHT22;11508;50.856;4.380;2024-03-23T15:01:11;11.20;99.90
22682;DHT22;11508;50.856;4.380;2024-03-23T15:03:37;11.10;99.90
22682;DHT22;11508;50.856;4.380;2024-03-23T15:06:04;11.30;99.90
22682;DHT22;11508;50.856;4.380;2024-03-23T15:08:30;11.50;99.90
22682;DHT22;11508;50.856;4.380;2024-03-23T15:10:59;11.10;99.90
22682;DHT22;11508;50.856;4.380;2024-03-23T15:13:25;10.90;99.90
22682;DHT22;11508;50.856;4.380;2024-03-23T15:15:56;11.10;99.90
22682;DHT22;11508;50.856;4.380;2024-03-23T15:18:25;11.10;99.90
22682;DHT22;11508;50.856;4.380;2024-03-23T15:20:54;11.30;99.90
22682;DHT22;11508;50.856;4.380;2024-03-23T15:23:20;11.40;99.90
22682;DHT22;11508;50.856;4.380;2024-03-23T15:25:45;11.40;99.90
22682;DHT22;11508;50.856;4.380;2024-03-23T15:28:12;11.20;99.90
22682;DHT22;11508;50.856;4.380;2024-03-23T15:30:39;11.10;99.90
22682;DHT22;11508;50.856;4.380;2024-03-23T15:33:05;11.10;99.90
22682;DHT22;11508;50.856;4.380;2024-03-23T15:35:31;11.30;99.90
22682;DHT22;11508;50.856;4.380;2024-03-23T15:38:16;11.10;99.90
22682;DHT22;11508;50.856;4.380;2024-03-23T15:40:59;10.80;99.90
22682;DHT22;11508;50.856;4.380;2024-03-23T15:43:33;10.90;99.90
22682;DHT22;11508;50.856;4.380;2024-03-23T15:46:08;10.70;99.90
22682;DHT22;11508;50.856;4.380;2024-03-23T15:48:40;10.80;99.90
22682;DHT22;11508;50.856;4.380;2024-03-23T15:51:15;10.90;99.90
22682;DHT22;11508;50.856;4.380;2024-03-23T15:53:56;10.80;99.90
22682;DHT22;11508;50.856;4.380;2024-03-23T15:56:30;10.70;99.90
22682;DHT22;11508;50.856;4.380;2024-03-23T15:59:11;10.60;99.90
22682;DHT22;11508;50.856;4.380;2024-03-23T16:01:55;10.60;99.90
22682;DHT22;11508;50.856;4.380;2024-03-23T16:04:22;10.60;99.90
22682;DHT22;11508;50.856;4.380;2024-03-23T16:06:49;10.70;99.90
22682;DHT22;11508;50.856;4.380;2024-03-23T16:09:22;10.70;99.90
22682;DHT22;11508;50.856;4.380;2024-03-23T16:11:52;10.90;99.90
22682;DHT22;11508;50.856;4.380;2024-03-23T16:14:19;11.00;99.90
22682;DHT22;11508;50.856;4.380;2024-03-23T16:16:45;10.90;99.90
22682;DHT22;11508;50.856;4.380;2024-03-23T16:19:17;11.00;99.90
22682;DHT22;11508;50.856;4.380;2024-03-23T16:21:54;11.00;99.90
22682;DHT22;11508;50.856;4.380;2024-03-23T16:24:22;11.20;99.90
22682;DHT22;11508;50.856;4.380;2024-03-23T16:26:49;11.30;99.90
22682;DHT22;11508;50.856;4.380;2024-03-23T16:29:15;11.10;99.90
22682;DHT22;11508;50.856;4.380;2024-03-23T16:31:44;11.20;99.90
22682;DHT22;11508;50.856;4.380;2024-03-23T16:34:11;11.10;99.90
22682;DHT22;11508;50.856;4.380;2024-03-23T16:36:38;11.50;99.90
22682;DHT22;11508;50.856;4.380;2024-03-23T16:39:14;11.40;99.90
22682;DHT22;11508;50.856;4.380;2024-03-23T16:41:41;11.20;99.90
22682;DHT22;11508;50.856;4.380;2024-03-23T16:44:06;11.00;96.10
22682;DHT22;11508;50.856;4.380;2024-03-23T16:46:37;11.00;99.90
22682;DHT22;11508;50.856;4.380;2024-03-23T16:49:04;11.20;99.90
22682;DHT22;11508;50.856;4.380;2024-03-23T16:51:31;11.20;97.30
22682;DHT22;11508;50.856;4.380;2024-03-23T16:53:57;10.90;99.90
22682;DHT22;11508;50.856;4.380;2024-03-23T16:56:25;10.90;99.90
22682;DHT22;11508;50.856;4.380;2024-03-23T16:58:51;10.90;99.90
22682;DHT22;11508;50.856;4.380;2024-03-23T17:01:38;11.10;99.90
22682;DHT22;11508;50.856;4.380;2024-03-23T17:04:06;11.00;99.90
22682;DHT22;11508;50.856;4.380;2024-03-23T17:06:31;10.70;99.90
22682;DHT22;11508;50.856;4.380;2024-03-23T17:08:58;10.70;99.90
22682;DHT22;11508;50.856;4.380;2024-03-23T17:11:25;10.80;99.90
22682;DHT22;11508;50.856;4.380;2024-03-23T17:13:51;10.90;99.90
22682;DHT22;11508;50.856;4.380;2024-03-23T17:16:21;11.00;99.90
22682;DHT22;11508;50.856;4.380;2024-03-23T17:19:08;10.60;99.90
22682;DHT22;11508;50.856;4.380;2024-03-23T17:21:35;10.50;99.90
22682;DHT22;11508;50.856;4.380;2024-03-23T17:24:02;10.50;99.90
22682;DHT22;11508;50.856;4.380;2024-03-23T17:26:28;10.40;99.90
22682;DHT22;11508;50.856;4.380;2024-03-23T17:29:23;10.30;99.90
22682;DHT22;11508;50.856;4.380;2024-03-23T17:32:06;10.40;99.90
22682;DHT22;11508;50.856;4.380;2024-03-23T17:34:33;10.40;99.90
22682;DHT22;11508;50.856;4.380;2024-03-23T17:36:59;10.30;99.90
22682;DHT22;11508;50.856;4.380;2024-03-23T17:39:25;10.50;99.90
22682;DHT22;11508;50.856;4.380;2024-03-23T17:41:54;10.60;99.90
22682;DHT22;11508;50.856;4.380;2024-03-23T17:44:30;10.60;99.90
22682;DHT22;11508;50.856;4.380;2024-03-23T17:47:00;10.20;99.90
22682;DHT22;11508;50.856;4.380;2024-03-23T17:52:20;10.00;99.90
22682;DHT22;11508;50.856;4.380;2024-03-23T17:55:02;10.10;1.00
22682;DHT22;11508;50.856;4.380;2024-03-23T17:57:28;8.80;9.30
22682;DHT22;11508;50.856;4.380;2024-03-23T18:00:02;8.00;99.90
22682;DHT22;11508;50.856;4.380;2024-03-23T18:02:48;8.00;99.90
22682;DHT22;11508;50.856;4.380;2024-03-23T18:05:15;8.00;99.90
22682;DHT22;11508;50.856;4.380;2024-03-23T18:07:52;8.10;99.90
22682;DHT22;11508;50.856;4.380;2024-03-23T18:10:34;8.10;99.90
22682;DHT22;11508;50.856;4.380;2024-03-23T18:16:11;8.00;99.90
22682;DHT22;11508;50.856;4.380;2024-03-23T18:18:53;7.90;99.90
22682;DHT22;11508;50.856;4.380;2024-03-23T18:21:20;7.80;99.90
22682;DHT22;11508;50.856;4.380;2024-03-23T18:24:00;7.90;99.90
22682;DHT22;11508;50.856;4.380;2024-03-23T18:26:58;7.80;99.90
22682;DHT22;11508;50.856;4.380;2024-03-23T18:38:45;7.90;1.00
22682;DHT22;11508;50.856;4.380;2024-03-23T18:41:15;7.80;99.90
22682;DHT22;11508;50.856;4.380;2024-03-23T18:46:59;7.20;1.00
22682;DHT22;11508;50.856;4.380;2024-03-23T18:50:00;6.90;1.00
22682;DHT22;11508;50.856;4.380;2024-03-23T18:52:26;6.80;8.50
22682;DHT22;11508;50.856;4.380;2024-03-23T18:54:54;6.80;15.40
22682;DHT22;11508;50.856;4.380;2024-03-23T18:57:28;6.90;32.40
22682;DHT22;11508;50.856;4.380;2024-03-23T19:00:04;6.90;15.00
22682;DHT22;11508;50.856;4.380;2024-03-23T19:02:36;6.70;1.00
22682;DHT22;11508;50.856;4.380;2024-03-23T19:05:29;6.60;1.00
22682;DHT22;11508;50.856;4.380;2024-03-23T19:11:02;6.80;1.00
22682;DHT22;11508;50.856;4.380;2024-03-23T19:13:49;6.70;1.00
22682;DHT22;11508;50.856;4.380;2024-03-23T19:16:17;6.60;2.70
22682;DHT22;11508;50.856;4.380;2024-03-23T19:19:08;6.70;10.90
22682;DHT22;11508;50.856;4.380;2024-03-23T19:21:59;6.70;8.90
22682;DHT22;11508;50.856;4.380;2024-03-23T19:24:35;6.80;1.00
22682;DHT22;11508;50.856;4.380;2024-03-23T19:27:25;6.80;1.00
22682;DHT22;11508;50.856;4.380;2024-03-23T19:30:15;6.70;1.00
22682;DHT22;11508;50.856;4.380;2024-03-23T19:32:42;6.60;1.00
22682;DHT22;11508;50.856;4.380;2024-03-23T19:35:31;6.80;1.00
22682;DHT22;11508;50.856;4.380;2024-03-23T19:41:05;6.70;1.00
22682;DHT22;11508;50.856;4.380;2024-03-23T19:43:50;6.60;6.20
22682;DHT22;11508;50.856;4.380;2024-03-23T19:46:48;6.60;16.80